Time,TemperatureF,DewpointF,PressureIn,WindDirection,WindDirectionDegrees,WindSpeedMPH,WindSpeedGustMPH,Humidity,HourlyPrecipIn,Conditions,Clouds,dailyrainin,SoftwareType,DateUTC
2013-08-26 00:01:00,62.6,56.3,30.18,West,261,0.0,0.0,80,0.00,,,0.00,Wunderground v.1.15,2013-08-26 04:01:00,
2013-08-26 00:11:00,62.6,56.7,30.18,West,259,0.0,0.0,81,0.00,,,0.00,Wunderground v.1.15,2013-08-26 04:11:00,
2013-08-26 00:21:00,62.6,56.7,30.17,West,270,0.0,0.0,81,0.00,,,0.00,Wunderground v.1.15,2013-08-26 04:21:00,
2013-08-26 00:31:00,62.6,57.0,30.17,WSW,247,0.0,0.0,82,0.00,,,0.00,Wunderground v.1.15,2013-08-26 04:31:00,
2013-08-26 00:41:00,62.6,57.0,30.17,WSW,237,0.0,0.0,82,0.00,,,0.00,Wunderground v.1.15,2013-08-26 04:41:00,
2013-08-26 00:51:00,62.6,56.7,30.17,WSW,240,0.0,0.0,81,0.00,,,0.00,Wunderground v.1.15,2013-08-26 04:51:00,
2013-08-26 01:01:00,62.6,57.0,30.17,WSW,240,0.0,0.0,82,0.00,,,0.00,Wunderground v.1.15,2013-08-26 05:01:00,
2013-08-26 01:11:00,62.6,57.0,30.17,WSW,240,0.0,0.0,82,0.00,,,0.00,Wunderground v.1.15,2013-08-26 05:11:00,
2013-08-26 01:21:00,62.4,56.8,30.17,WSW,240,0.0,0.0,82,0.00,,,0.00,Wunderground v.1.15,2013-08-26 05:21:00,
2013-08-26 01:31:00,62.6,57.4,30.17,WSW,240,0.0,0.0,83,0.00,,,0.00,Wunderground v.1.15,2013-08-26 05:31:00,
2013-08-26 01:41:00,62.6,57.4,30.16,WSW,240,0.0,0.0,83,0.00,,,0.00,Wunderground v.1.15,2013-08-26 05:41:00,
2013-08-26 01:51:00,62.7,57.5,30.15,WSW,240,0.0,0.0,83,0.00,,,0.00,Wunderground v.1.15,2013-08-26 05:51:00,
2013-08-26 02:01:00,62.9,57.7,30.15,WSW,245,0.0,1.0,83,0.00,,,0.00,Wunderground v.1.15,2013-08-26 06:01:00,
2013-08-26 02:11:00,63.2,57.9,30.15,SW,234,0.0,0.0,83,0.00,,,0.00,Wunderground v.1.15,2013-08-26 06:11:00,
2013-08-26 02:21:00,63.4,57.8,30.15,WSW,251,0.0,0.0,82,0.00,,,0.00,Wunderground v.1.15,2013-08-26 06:21:00,
2013-08-26 02:31:00,63.4,57.8,30.15,WSW,251,0.0,0.0,82,0.00,,,0.00,Wunderground v.1.15,2013-08-26 06:31:00,
2013-08-26 02:41:00,63.4,57.5,30.15,WSW,250,0.0,0.0,81,0.00,,,0.00,Wunderground v.1.15,2013-08-26 06:41:00,
2013-08-26 02:51:00,63.9,57.3,30.15,NW,318,0.0,0.0,79,0.00,,,0.00,Wunderground v.1.15,2013-08-26 06:51:00,
2013-08-26 03:01:00,64.7,57.3,30.15,WSW,257,1.0,1.0,77,0.00,,,0.00,Wunderground v.1.15,2013-08-26 07:01:00,
2013-08-26 03:11:00,65.0,57.6,30.14,SW,221,0.0,1.0,77,0.00,,,0.00,Wunderground v.1.15,2013-08-26 07:11:00,
2013-08-26 03:21:00,65.2,57.4,30.14,SW,235,0.0,0.0,76,0.00,,,0.00,Wunderground v.1.15,2013-08-26 07:21:00,
2013-08-26 03:31:00,65.3,57.9,30.14,SSW,199,0.0,0.0,77,0.00,,,0.00,Wunderground v.1.15,2013-08-26 07:31:00,
2013-08-26 03:41:00,65.2,57.8,30.13,SSW,199,0.0,0.0,77,0.00,,,0.00,Wunderground v.1.15,2013-08-26 07:41:00,
2013-08-26 03:51:00,65.0,57.6,30.13,SSW,210,0.0,0.0,77,0.00,,,0.00,Wunderground v.1.15,2013-08-26 07:51:00,
2013-08-26 04:01:00,64.8,57.8,30.13,SSW,210,0.0,0.0,78,0.00,,,0.00,Wunderground v.1.15,2013-08-26 08:01:00,
2013-08-26 04:11:00,64.7,57.7,30.13,SSW,210,0.0,0.0,78,0.00,,,0.00,Wunderground v.1.15,2013-08-26 08:11:00,
2013-08-26 04:21:00,64.5,57.8,30.12,SSW,210,0.0,0.0,79,0.00,,,0.00,Wunderground v.1.15,2013-08-26 08:21:00,
2013-08-26 04:31:00,64.3,57.6,30.12,SW,215,0.0,0.0,79,0.00,,,0.00,Wunderground v.1.15,2013-08-26 08:31:00,
2013-08-26 04:41:00,64.3,58.0,30.12,WSW,256,0.0,0.0,80,0.00,,,0.00,Wunderground v.1.15,2013-08-26 08:41:00,
2013-08-26 04:51:00,64.5,57.8,30.11,WSW,256,0.0,0.0,79,0.00,,,0.00,Wunderground v.1.15,2013-08-26 08:51:00,
2013-08-26 05:01:00,64.7,58.4,30.11,WSW,256,0.0,0.0,80,0.00,,,0.00,Wunderground v.1.15,2013-08-26 09:01:00,
2013-08-26 05:11:00,64.5,58.5,30.10,WSW,256,0.0,0.0,81,0.00,,,0.00,Wunderground v.1.15,2013-08-26 09:11:00,
2013-08-26 05:21:00,64.2,58.6,30.09,WSW,248,0.0,0.0,82,0.00,,,0.00,Wunderground v.1.15,2013-08-26 09:21:00,
2013-08-26 05:31:00,64.2,57.9,30.09,West,263,1.0,1.0,80,0.00,,,0.00,Wunderground v.1.15,2013-08-26 09:31:00,
2013-08-26 05:41:00,64.7,57.7,30.10,SW,214,0.0,0.0,78,0.00,,,0.00,Wunderground v.1.15,2013-08-26 09:41:00,
2013-08-26 05:51:00,64.8,57.8,30.10,WSW,256,0.0,0.0,78,0.00,,,0.00,Wunderground v.1.15,2013-08-26 09:51:00,
2013-08-26 06:01:00,64.8,58.1,30.10,West,269,0.0,0.0,79,0.00,,,0.00,Wunderground v.1.15,2013-08-26 10:01:00,
2013-08-26 06:11:00,64.7,58.0,30.10,West,269,0.0,0.0,79,0.00,,,0.00,Wunderground v.1.15,2013-08-26 10:11:00,
2013-08-26 06:21:00,64.5,58.2,30.10,West,262,0.0,0.0,80,0.00,,,0.00,Wunderground v.1.15,2013-08-26 10:21:00,
2013-08-26 06:31:00,64.3,58.7,30.10,West,274,0.0,0.0,82,0.00,,,0.00,Wunderground v.1.15,2013-08-26 10:31:00,
2013-08-26 06:41:00,64.3,58.3,30.10,SW,219,0.0,0.0,81,0.00,,,0.00,Wunderground v.1.15,2013-08-26 10:41:00,
2013-08-26 06:51:00,64.3,58.7,30.09,SSW,213,0.0,0.0,82,0.00,,,0.00,Wunderground v.1.15,2013-08-26 10:51:00,
2013-08-26 07:01:00,64.3,59.0,30.09,SSW,213,0.0,0.0,83,0.00,,,0.00,Wunderground v.1.15,2013-08-26 11:01:00,
2013-08-26 07:11:00,64.5,58.9,30.09,WSW,255,0.0,0.0,82,0.00,,,0.00,Wunderground v.1.15,2013-08-26 11:11:00,
2013-08-26 07:21:00,64.7,58.7,30.08,South,190,0.0,0.0,81,0.00,,,0.00,Wunderground v.1.15,2013-08-26 11:21:00,
2013-08-26 07:31:00,65.0,59.0,30.08,WSW,248,0.0,0.0,81,0.00,,,0.00,Wunderground v.1.15,2013-08-26 11:31:00,
2013-08-26 07:41:00,65.0,59.0,30.09,SSW,212,0.0,1.0,81,0.00,,,0.00,Wunderground v.1.15,2013-08-26 11:41:00,
2013-08-26 07:51:00,65.0,59.4,30.08,ESE,120,0.0,0.0,82,0.00,,,0.00,Wunderground v.1.15,2013-08-26 11:51:00,
2013-08-26 08:01:00,64.8,59.5,30.08,West,275,0.0,1.0,83,0.00,,,0.00,Wunderground v.1.15,2013-08-26 12:01:00,
2013-08-26 08:11:00,64.7,59.8,30.08,SSE,150,1.0,1.0,84,0.00,,,0.00,Wunderground v.1.15,2013-08-26 12:11:00,
2013-08-26 08:21:00,64.8,59.5,30.07,West,263,1.0,1.0,83,0.00,,,0.00,Wunderground v.1.15,2013-08-26 12:21:00,
2013-08-26 08:31:00,65.3,59.7,30.07,SW,233,2.0,2.0,82,0.00,,,0.00,Wunderground v.1.15,2013-08-26 12:31:00,
2013-08-26 08:41:00,66.3,60.3,30.06,WSW,240,2.0,2.0,81,0.00,,,0.00,Wunderground v.1.15,2013-08-26 12:41:00,
2013-08-26 08:51:00,66.6,60.9,30.06,South,185,2.0,4.0,82,0.00,,,0.00,Wunderground v.1.15,2013-08-26 12:51:00,
2013-08-26 09:01:00,66.3,60.6,30.06,WSW,250,2.0,2.0,82,0.00,,,0.00,Wunderground v.1.15,2013-08-26 13:01:00,
2013-08-26 09:11:00,66.1,60.8,30.06,NW,323,2.0,2.0,83,0.00,,,0.00,Wunderground v.1.15,2013-08-26 13:11:00,
2013-08-26 09:21:00,66.0,60.7,30.06,SE,127,2.0,2.0,83,0.00,,,0.00,Wunderground v.1.15,2013-08-26 13:21:00,
2013-08-26 09:31:00,65.8,60.5,30.06,WSW,245,1.0,2.0,83,0.00,,,0.00,Wunderground v.1.15,2013-08-26 13:31:00,
2013-08-26 09:41:00,66.0,60.7,30.05,WSW,250,1.0,2.0,83,0.00,,,0.00,Wunderground v.1.15,2013-08-26 13:41:00,
2013-08-26 09:51:00,66.3,61.0,30.04,SSW,192,1.0,1.0,83,0.00,,,0.00,Wunderground v.1.15,2013-08-26 13:51:00,
2013-08-26 10:01:00,66.8,61.1,30.04,WSW,243,2.0,2.0,82,0.00,,,0.00,Wunderground v.1.15,2013-08-26 14:01:00,
2013-08-26 10:11:00,67.4,61.0,30.03,WSW,243,2.0,2.0,80,0.00,,,0.00,Wunderground v.1.15,2013-08-26 14:11:00,
2013-08-26 10:21:00,68.8,60.9,30.04,SSE,157,1.0,2.0,76,0.00,,,0.00,Wunderground v.1.15,2013-08-26 14:21:00,
2013-08-26 10:31:00,69.6,61.7,30.04,NW,326,2.0,2.0,76,0.00,,,0.00,Wunderground v.1.15,2013-08-26 14:31:00,
2013-08-26 10:41:00,70.1,61.0,30.03,WSW,250,2.0,5.0,73,0.00,,,0.00,Wunderground v.1.15,2013-08-26 14:41:00,
2013-08-26 10:51:00,71.6,63.3,30.03,WSW,256,2.0,2.0,75,0.00,,,0.00,Wunderground v.1.15,2013-08-26 14:51:00,
2013-08-26 11:01:00,73.7,63.7,30.03,SW,221,2.0,2.0,71,0.00,,,0.00,Wunderground v.1.15,2013-08-26 15:01:00,
2013-08-26 11:11:00,75.3,62.7,30.01,West,264,2.0,4.0,65,0.00,,,0.00,Wunderground v.1.15,2013-08-26 15:11:00,
2013-08-26 11:21:00,76.5,65.1,30.01,SE,144,2.0,2.0,68,0.00,,,0.00,Wunderground v.1.15,2013-08-26 15:21:00,
2013-08-26 11:31:00,76.8,64.6,30.01,SSW,207,2.0,3.0,66,0.00,,,0.00,Wunderground v.1.15,2013-08-26 15:31:00,
2013-08-26 11:41:00,77.4,62.9,30.00,NNW,342,3.0,3.0,61,0.00,,,0.00,Wunderground v.1.15,2013-08-26 15:41:00,
2013-08-26 11:51:00,77.9,65.2,30.00,SSW,202,3.0,4.0,65,0.00,,,0.00,Wunderground v.1.15,2013-08-26 15:51:00,
2013-08-26 12:01:00,78.3,64.2,30.00,WNW,293,3.0,4.0,62,0.00,,,0.00,Wunderground v.1.15,2013-08-26 16:01:00,
2013-08-26 12:11:00,78.6,64.0,29.98,SW,229,2.0,3.0,61,0.00,,,0.00,Wunderground v.1.15,2013-08-26 16:11:00,
2013-08-26 12:21:00,78.6,63.6,29.98,WSW,253,2.0,2.0,60,0.00,,,0.00,Wunderground v.1.15,2013-08-26 16:21:00,
2013-08-26 12:31:00,79.8,66.1,29.98,SW,231,2.0,2.0,63,0.00,,,0.00,Wunderground v.1.15,2013-08-26 16:31:00,
2013-08-26 12:41:00,79.9,64.8,29.98,North,358,3.0,3.0,60,0.00,,,0.00,Wunderground v.1.15,2013-08-26 16:41:00,
2013-08-26 12:51:00,80.3,65.6,29.97,SW,229,3.0,3.0,61,0.00,,,0.00,Wunderground v.1.15,2013-08-26 16:51:00,
2013-08-26 13:01:00,80.5,65.8,29.97,SW,222,2.0,7.0,61,0.00,,,0.00,Wunderground v.1.15,2013-08-26 17:01:00,
2013-08-26 13:11:00,79.9,65.2,29.97,NE,53,3.0,3.0,61,0.00,,,0.00,Wunderground v.1.15,2013-08-26 17:11:00,
2013-08-26 13:21:00,80.1,64.5,29.96,SW,219,2.0,3.0,59,0.00,,,0.00,Wunderground v.1.15,2013-08-26 17:21:00,
2013-08-26 13:31:00,81.6,65.4,29.96,WSW,242,2.0,3.0,58,0.00,,,0.00,Wunderground v.1.15,2013-08-26 17:31:00,
2013-08-26 13:41:00,80.5,65.3,29.95,South,177,2.0,2.0,60,0.00,,,0.00,Wunderground v.1.15,2013-08-26 17:41:00,
2013-08-26 13:51:00,80.1,65.0,29.95,SSW,195,2.0,2.0,60,0.00,,,0.00,Wunderground v.1.15,2013-08-26 17:51:00,
2013-08-26 14:01:00,79.4,65.2,29.95,WNW,291,2.0,2.0,62,0.00,,,0.00,Wunderground v.1.15,2013-08-26 18:01:00,
2013-08-26 14:11:00,79.2,66.0,29.95,West,277,1.0,1.0,64,0.00,,,0.00,Wunderground v.1.15,2013-08-26 18:11:00,
2013-08-26 14:21:00,79.4,65.7,29.94,West,266,1.0,1.0,63,0.00,,,0.00,Wunderground v.1.15,2013-08-26 18:21:00,
2013-08-26 14:31:00,79.6,66.3,29.94,SSW,203,1.0,2.0,64,0.00,,,0.00,Wunderground v.1.15,2013-08-26 18:31:00,
2013-08-26 14:41:00,79.4,66.6,29.93,SSW,196,1.0,1.0,65,0.00,,,0.00,Wunderground v.1.15,2013-08-26 18:41:00,
2013-08-26 14:51:00,79.4,65.2,29.93,WSW,248,1.0,5.0,62,0.00,,,0.00,Wunderground v.1.15,2013-08-26 18:51:00,
2013-08-26 15:01:00,79.4,66.2,29.93,NNE,16,2.0,3.0,64,0.00,,,0.00,Wunderground v.1.15,2013-08-26 19:01:00,
2013-08-26 15:11:00,79.2,66.4,29.93,WNW,290,4.0,4.0,65,0.00,,,0.00,Wunderground v.1.15,2013-08-26 19:11:00,
2013-08-26 15:21:00,78.8,65.6,29.93,SSW,197,2.0,2.0,64,0.00,,,0.00,Wunderground v.1.15,2013-08-26 19:21:00,
2013-08-26 15:31:00,78.5,65.8,29.93,South,190,2.0,2.0,65,0.00,,,0.00,Wunderground v.1.15,2013-08-26 19:31:00,
2013-08-26 15:41:00,78.3,66.0,29.92,West,266,1.0,5.0,66,0.00,,,0.00,Wunderground v.1.15,2013-08-26 19:41:00,
2013-08-26 15:51:00,78.5,66.2,29.92,WNW,291,2.0,5.0,66,0.00,,,0.00,Wunderground v.1.15,2013-08-26 19:51:00,
2013-08-26 16:01:00,78.8,66.5,29.92,WSW,250,2.0,2.0,66,0.00,,,0.00,Wunderground v.1.15,2013-08-26 20:01:00,
2013-08-26 16:11:00,79.2,67.3,29.91,SW,233,1.0,2.0,67,0.00,,,0.00,Wunderground v.1.15,2013-08-26 20:11:00,
2013-08-26 16:21:00,78.6,66.7,29.91,SW,230,1.0,3.0,67,0.00,,,0.00,Wunderground v.1.15,2013-08-26 20:21:00,
2013-08-26 16:31:00,78.1,67.1,29.91,WNW,293,1.0,1.0,69,0.00,,,0.00,Wunderground v.1.15,2013-08-26 20:31:00,
2013-08-26 16:41:00,77.7,65.9,29.91,North,8,1.0,2.0,67,0.00,,,0.00,Wunderground v.1.15,2013-08-26 20:41:00,
2013-08-26 16:51:00,77.6,66.6,29.91,NNW,348,0.0,0.0,69,0.00,,,0.00,Wunderground v.1.15,2013-08-26 20:51:00,
2013-08-26 17:01:00,77.4,66.8,29.91,NNE,12,0.0,1.0,70,0.00,,,0.00,Wunderground v.1.15,2013-08-26 21:01:00,
2013-08-26 17:11:00,77.2,66.7,29.91,NNW,338,0.0,0.0,70,0.00,,,0.00,Wunderground v.1.15,2013-08-26 21:11:00,
2013-08-26 17:21:00,77.2,67.1,29.91,West,278,0.0,2.0,71,0.00,,,0.00,Wunderground v.1.15,2013-08-26 21:21:00,
2013-08-26 17:31:00,77.2,66.7,29.91,West,262,1.0,1.0,70,0.00,,,0.00,Wunderground v.1.15,2013-08-26 21:31:00,
2013-08-26 17:41:00,77.0,66.5,29.90,WSW,243,1.0,1.0,70,0.00,,,0.00,Wunderground v.1.15,2013-08-26 21:41:00,
2013-08-26 17:51:00,77.0,66.9,29.90,WSW,250,1.0,1.0,71,0.00,,,0.00,Wunderground v.1.15,2013-08-26 21:51:00,
2013-08-26 18:01:00,76.7,67.0,29.90,SSW,193,1.0,1.0,72,0.00,,,0.00,Wunderground v.1.15,2013-08-26 22:01:00,
2013-08-26 18:11:00,76.5,66.8,29.90,SSW,195,1.0,1.0,72,0.00,,,0.00,Wunderground v.1.15,2013-08-26 22:11:00,
2013-08-26 18:21:00,76.3,67.0,29.90,WSW,252,0.0,0.0,73,0.00,,,0.00,Wunderground v.1.15,2013-08-26 22:21:00,
2013-08-26 18:31:00,76.1,67.2,29.90,South,189,1.0,1.0,74,0.00,,,0.00,Wunderground v.1.15,2013-08-26 22:31:00,
2013-08-26 18:41:00,76.0,67.1,29.90,SW,219,1.0,1.0,74,0.00,,,0.00,Wunderground v.1.15,2013-08-26 22:41:00,
2013-08-26 18:51:00,75.8,67.3,29.90,WSW,242,0.0,0.0,75,0.00,,,0.00,Wunderground v.1.15,2013-08-26 22:51:00,
2013-08-26 19:01:00,75.4,67.3,29.90,SW,214,0.0,0.0,76,0.00,,,0.00,Wunderground v.1.15,2013-08-26 23:01:00,
2013-08-26 19:11:00,75.1,67.0,29.90,SW,231,0.0,0.0,76,0.00,,,0.00,Wunderground v.1.15,2013-08-26 23:11:00,
2013-08-26 19:21:00,74.7,67.0,29.90,SSW,208,0.0,0.0,77,0.00,,,0.00,Wunderground v.1.15,2013-08-26 23:21:00,
2013-08-26 19:31:00,74.4,67.1,29.90,SSW,200,0.0,0.0,78,0.00,,,0.00,Wunderground v.1.15,2013-08-26 23:31:00,
2013-08-26 19:41:00,74.0,66.7,29.90,West,259,0.0,0.0,78,0.00,,,0.00,Wunderground v.1.15,2013-08-26 23:41:00,
2013-08-26 19:51:00,73.9,67.0,29.90,West,259,0.0,0.0,79,0.00,,,0.00,Wunderground v.1.15,2013-08-26 23:51:00,
2013-08-26 20:01:00,73.3,67.1,29.90,WSW,257,0.0,0.0,81,0.00,,,0.00,Wunderground v.1.15,2013-08-27 00:01:00,
2013-08-26 20:11:00,72.8,67.0,29.90,WSW,257,0.0,0.0,82,0.00,,,0.00,Wunderground v.1.15,2013-08-27 00:11:00,
2013-08-26 20:21:00,72.5,67.0,29.90,WSW,257,0.0,0.0,83,0.00,,,0.00,Wunderground v.1.15,2013-08-27 00:21:00,
2013-08-26 20:31:00,72.0,66.9,29.90,WSW,257,0.0,0.0,84,0.00,,,0.00,Wunderground v.1.15,2013-08-27 00:31:00,
2013-08-26 20:41:00,71.8,67.0,29.89,WSW,257,0.0,0.0,85,0.00,,,0.00,Wunderground v.1.15,2013-08-27 00:41:00,
2013-08-26 20:51:00,71.6,66.8,29.90,WSW,257,0.0,0.0,85,0.00,,,0.00,Wunderground v.1.15,2013-08-27 00:51:00,
2013-08-26 21:01:00,71.5,67.1,29.90,WSW,257,0.0,0.0,86,0.00,,,0.00,Wunderground v.1.15,2013-08-27 01:01:00,
2013-08-26 21:11:00,71.1,66.7,29.90,WSW,257,0.0,0.0,86,0.00,,,0.00,Wunderground v.1.15,2013-08-27 01:11:00,
2013-08-26 21:21:00,70.9,66.8,29.90,WSW,257,0.0,0.0,87,0.00,,,0.00,Wunderground v.1.15,2013-08-27 01:21:00,
2013-08-26 21:31:00,70.6,66.5,29.90,WSW,257,0.0,0.0,87,0.00,,,0.00,Wunderground v.1.15,2013-08-27 01:31:00,
2013-08-26 21:41:00,70.4,66.7,29.89,WSW,257,0.0,0.0,88,0.00,,,0.00,Wunderground v.1.15,2013-08-27 01:41:00,
2013-08-26 21:51:00,70.4,67.0,29.89,WSW,257,0.0,0.0,89,0.00,,,0.00,Wunderground v.1.15,2013-08-27 01:51:00,
2013-08-26 22:01:00,70.3,66.9,29.89,WSW,257,0.0,0.0,89,0.00,,,0.00,Wunderground v.1.15,2013-08-27 02:01:00,
2013-08-26 22:11:00,69.9,66.8,29.89,WSW,257,0.0,0.0,90,0.00,,,0.00,Wunderground v.1.15,2013-08-27 02:11:00,
2013-08-26 22:21:00,69.8,66.7,29.89,WSW,257,0.0,0.0,90,0.00,,,0.00,Wunderground v.1.15,2013-08-27 02:21:00,
2013-08-26 22:31:00,69.8,67.1,29.89,WSW,257,0.0,0.0,91,0.00,,,0.00,Wunderground v.1.15,2013-08-27 02:31:00,
2013-08-26 22:41:00,69.6,66.9,29.89,WSW,257,0.0,0.0,91,0.00,,,0.00,Wunderground v.1.15,2013-08-27 02:41:00,
2013-08-26 22:51:00,69.6,66.9,29.89,WSW,257,0.0,1.0,91,0.00,,,0.00,Wunderground v.1.15,2013-08-27 02:51:00,
2013-08-26 23:01:00,69.4,67.0,29.89,SW,214,0.0,0.0,92,0.00,,,0.00,Wunderground v.1.15,2013-08-27 03:01:00,
2013-08-26 23:11:00,69.4,67.0,29.89,SW,214,0.0,0.0,92,0.00,,,0.00,Wunderground v.1.15,2013-08-27 03:11:00,
2013-08-26 23:21:00,69.6,67.2,29.88,SW,214,0.0,0.0,92,0.00,,,0.00,Wunderground v.1.15,2013-08-27 03:21:00,
2013-08-26 23:31:00,69.6,66.9,29.88,SW,214,0.0,0.0,91,0.00,,,0.00,Wunderground v.1.15,2013-08-27 03:31:00,
2013-08-26 23:41:00,69.6,66.9,29.87,SW,214,0.0,0.0,91,0.00,,,0.00,Wunderground v.1.15,2013-08-27 03:41:00,
2013-08-26 23:51:00,69.4,66.7,29.87,SW,214,0.0,0.0,91,0.00,,,0.00,Wunderground v.1.15,2013-08-27 03:51:00,